Aérodrome :
LOGIN :

S'inscrire | Disclaimer

   EN    FR    IT 

 










Légende :    VFR   VFR Marginal   IFR   IFR Intensif   IFR Très Intensif
Visi : 
Plafond : 
>= 8 km
>= 3000ft
5 à 8 km
1000 à 3000 ft
1500m à 5 km
500 à 1000 ft
800 à 1500m
200 à 500 ft
< 800m
< 200 ft
Symboles :   Orages  Brouillard  Fortes neiges  Fortes précipitations  Vent > 20 kt
SIGMETs :   Divers  Orages  Givrage  Turbulence  Onde Orograph.  Cendres Volcan.







- Altitude de l'aérodrome : 202 ft
- Code IATA : LGW
- Voir les cartes d'approche


EGKK - London Gatwick

DERNIER METAR :
  • 150450Z 11006KT 9999 OVC027 01/M02 Q1019

METARs EXPIRÉS :
  • 150420Z 10008KT 9999 OVC028 01/M03 Q1020
  • 150350Z 10008KT 9999 BKN024 01/M03 Q1020
  • 150320Z 10008KT 9999 SCT026 OVC031 01/M03 Q1020
  • 150250Z 10008KT 9999 OVC028 01/M03 Q1021
  • 150220Z 11008KT 9999 OVC028 01/M03 Q1021

TAF TAF EGKK
Valide du 15 à 00h jusqu'au 16 à 06h UTC


142255Z 1500/1606 08006KT 9999 SCT040
BECMG 1506/1509 14012KT
PROB30
TEMPO 1512/1521 14018G28KT
BECMG 1513/1516 -RA BKN010
TEMPO 1515/1521 6000 RA BKN007
PROB30
TEMPO 1516/1521 3000 +RA BKN004
BECMG 1520/1522 25010KT NSW FEW020
PROB30
TEMPO 1521/1524 8000
BECMG 1600/1603 6000
PROB30 1602/1606 2000 BR
Pas de NOTAMs connus pour ce terrain.
2 SIGMETs publiés pour la FIR London (EGTT) :
 
Givrage fort avec pluie surfondue
EGTT SIGMET 02 VALID 150500/150800 EGRR
EGTT LONDON FIR SEV ICE (FZRA) FCST WI N5316 W00300 - N5142 W00244 - N5148 W00437 - N5227 W00402 - N5313 W00414 - N5316 W00300 SFC/FL040 MOV ENE 05KT INTSF=
Turbulence forte
EGTT SIGMET 01 VALID 150400/150800 EGRR
EGTT LONDON FIR SEV TURB FCST W OF LINE N5500 W00156 - N4934 W00414 SFC/FL060 MOV E 10KT NC=



MET'MAP, la Météo Aéronautique d'un coup d'oeil ! - Copyright ORBIFLY Décembre 2007 - Disclaimer

ORBIFLY MET'MAP TEAM :

Programmation & Développement : Alexandra Zaïnal
Conception & Développement : Baudouin d'Aumeries
Co-Programmation & Développement : Marc-Olivier Méhu
Soutien technique & logistique : Manuel Goepfert

Contact : metmap@orbifly.com




SOURCES & CREDITS :

   NOAA